No particular awareness of the weather is required.    There are no Weather-warnings


Meteo18 Weather Cam more information Meteo18 Weather Cam


Thunder radar more information blitzortung!


Rain radar more information rain snow radar


Visit our other weather sites:

Template documentation
and downloads

And another site



Weather Underground History page Text

Daily Summary for May 1, 2017 Units:  Both    English   Metric
« Previous Day
Next Day »
Daily Weekly Monthly Yearly Custom
  High: Low: Average:
Temperature: TemperatureC °F /  -17.8 °C 6.3 °F /  -14.3 °C 9.1 °F /  -12.7 °C
Dew Point: DewpointC °F /  -17.8 °C 3.3 °F /  -15.9 °C 5.3 °F /  -14.8 °C
Humidity: Humidity % 53 % 78 %
Wind Speed: WindSpeedKMH mph /  0 km/h - 11 mph /  17.7 km/h
Wind Gust: WindSpeedGustKMH mph /  0 km/h - -
Wind:- - SW
Pressure: PressurehPa in /  0 hPa 1007.0 in /  34097 hPa -
Precipitation: 0.5 in /  12.7 mm    
Historical Graphs
 
 
Tabular Data for May 1, 2017
Time Temperature Dew Point Pressure Wind Wind Speed Wind Gust Humidity Rainfall Rate (Hourly)
TemperatureC °F /  -17.8 °C DewpointC °F /  -17.8 °C PressurehPa in /  0 hPa Calm     Humidity % HourlyPrecipMM in /  0 mm
00:02 7.1 °F /  -13.8 °C 5.7 °F /  -14.6 °C 1007.7 in /  34120.7 hPa SW 9.7 mph /  15.6 km/h 20.9 mph /  33.6 km/h 91 % 0.0 in /  0 mm
00:12 7.0 °F /  -13.9 °C 5.5 °F /  -14.7 °C 1007.0 in /  34097 hPa SW 8.0 mph /  12.9 km/h 25.7 mph /  41.4 km/h 90 % 0.0 in /  0 mm
00:22 6.9 °F /  -13.9 °C 5.5 °F /  -14.7 °C 1007.3 in /  34107.2 hPa SSW 9.7 mph /  15.6 km/h 25.7 mph /  41.4 km/h 91 % 0.0 in /  0 mm
00:32 6.8 °F /  -14 °C 5.3 °F /  -14.8 °C 1007.3 in /  34107.2 hPa South 11.3 mph /  18.2 km/h 22.5 mph /  36.2 km/h 90 % 0.0 in /  0 mm
00:37 6.8 °F /  -14 °C 5.3 °F /  -14.8 °C 1007.3 in /  34107.2 hPa South 6.4 mph /  10.3 km/h 20.9 mph /  33.6 km/h 90 % 0.0 in /  0 mm
00:42 6.8 °F /  -14 °C 5.4 °F /  -14.8 °C 1007.3 in /  34107.2 hPa SSW 4.8 mph /  7.7 km/h 20.9 mph /  33.6 km/h 91 % 0.0 in /  0 mm
00:52 6.7 °F /  -14.1 °C 5.3 °F /  -14.8 °C 1007.3 in /  34107.2 hPa South 12.9 mph /  20.8 km/h 24.1 mph /  38.8 km/h 91 % 0.0 in /  0 mm
01:02 6.7 °F /  -14.1 °C 5.3 °F /  -14.8 °C 1007.3 in /  34107.2 hPa South 9.7 mph /  15.6 km/h 24.1 mph /  38.8 km/h 91 % 0.0 in /  0 mm
01:12 6.6 °F /  -14.1 °C 5.2 °F /  -14.9 °C 1007.3 in /  34107.2 hPa SSW 14.5 mph /  23.3 km/h 22.5 mph /  36.2 km/h 91 % 0.0 in /  0 mm
01:17 6.6 °F /  -14.1 °C 5.2 °F /  -14.9 °C 1007.7 in /  34120.7 hPa SSE 6.4 mph /  10.3 km/h 22.5 mph /  36.2 km/h 91 % 0.0 in /  0 mm
01:22 6.6 °F /  -14.1 °C 5.2 °F /  -14.9 °C 1007.7 in /  34120.7 hPa SSW 12.9 mph /  20.8 km/h 20.9 mph /  33.6 km/h 91 % 0.0 in /  0 mm
01:32 6.6 °F /  -14.1 °C 5.1 °F /  -14.9 °C 1007.7 in /  34120.7 hPa SSW 9.7 mph /  15.6 km/h 20.9 mph /  33.6 km/h 90 % 0.0 in /  0 mm
01:42 6.6 °F /  -14.1 °C 5.2 °F /  -14.9 °C 1007.7 in /  34120.7 hPa SSW 6.4 mph /  10.3 km/h 24.1 mph /  38.8 km/h 91 % 0.0 in /  0 mm
01:52 6.6 °F /  -14.1 °C 5.1 °F /  -14.9 °C 1008.0 in /  34130.9 hPa South 16.1 mph /  25.9 km/h 22.5 mph /  36.2 km/h 90 % 0.0 in /  0 mm
01:57 6.6 °F /  -14.1 °C 5.1 °F /  -14.9 °C 1008.0 in /  34130.9 hPa SSW 9.7 mph /  15.6 km/h 22.5 mph /  36.2 km/h 90 % 0.0 in /  0 mm
02:02 6.6 °F /  -14.1 °C 5.1 °F /  -14.9 °C 1007.7 in /  34120.7 hPa SW 4.8 mph /  7.7 km/h 22.5 mph /  36.2 km/h 90 % 0.0 in /  0 mm
02:07 6.6 °F /  -14.1 °C 5.1 °F /  -14.9 °C 1007.7 in /  34120.7 hPa South 11.3 mph /  18.2 km/h 22.5 mph /  36.2 km/h 90 % 0.0 in /  0 mm
02:12 6.5 °F /  -14.2 °C 5.0 °F /  -15 °C 1008.0 in /  34130.9 hPa SSW 8.0 mph /  12.9 km/h 22.5 mph /  36.2 km/h 90 % 0.0 in /  0 mm
02:17 6.5 °F /  -14.2 °C 5.0 °F /  -15 °C 1008.0 in /  34130.9 hPa South 9.7 mph /  15.6 km/h 19.3 mph /  31.1 km/h 90 % 0.0 in /  0 mm
02:22 6.6 °F /  -14.1 °C 5.1 °F /  -14.9 °C 1008.0 in /  34130.9 hPa SSE 6.4 mph /  10.3 km/h 19.3 mph /  31.1 km/h 90 % 0.0 in /  0 mm
02:27 6.5 °F /  -14.2 °C 5.0 °F /  -15 °C 1008.0 in /  34130.9 hPa SW 9.7 mph /  15.6 km/h 16.1 mph /  25.9 km/h 90 % 0.0 in /  0 mm
02:32 6.6 °F /  -14.1 °C 5.1 °F /  -14.9 °C 1008.4 in /  34144.4 hPa SW 8.0 mph /  12.9 km/h 16.1 mph /  25.9 km/h 90 % 0.0 in /  0 mm
02:42 6.6 °F /  -14.1 °C 5.1 °F /  -14.9 °C 1008.0 in /  34130.9 hPa SE 9.7 mph /  15.6 km/h 19.3 mph /  31.1 km/h 90 % 0.0 in /  0 mm
02:47 6.7 °F /  -14.1 °C 5.2 °F /  -14.9 °C 1008.4 in /  34144.4 hPa SW 12.9 mph /  20.8 km/h 20.9 mph /  33.6 km/h 90 % 0.0 in /  0 mm
02:52 6.7 °F /  -14.1 °C 5.2 °F /  -14.9 °C 1008.4 in /  34144.4 hPa South 12.9 mph /  20.8 km/h 20.9 mph /  33.6 km/h 90 % 0.0 in /  0 mm
03:02 6.8 °F /  -14 °C 5.3 °F /  -14.8 °C 1008.4 in /  34144.4 hPa SW 24.1 mph /  38.8 km/h 24.1 mph /  38.8 km/h 90 % 0.0 in /  0 mm
03:07 6.8 °F /  -14 °C 5.3 °F /  -14.8 °C 1008.4 in /  34144.4 hPa SSW 9.7 mph /  15.6 km/h 24.1 mph /  38.8 km/h 90 % 0.0 in /  0 mm
03:12 6.7 °F /  -14.1 °C 5.2 °F /  -14.9 °C 1008.4 in /  34144.4 hPa SSW 19.3 mph /  31.1 km/h 24.1 mph /  38.8 km/h 90 % 0.0 in /  0 mm
03:17 6.7 °F /  -14.1 °C 5.2 °F /  -14.9 °C 1008.7 in /  34154.6 hPa SSW 11.3 mph /  18.2 km/h 24.1 mph /  38.8 km/h 90 % 0.0 in /  0 mm
03:22 6.7 °F /  -14.1 °C 5.2 °F /  -14.9 °C 1008.7 in /  34154.6 hPa SSW 11.3 mph /  18.2 km/h 20.9 mph /  33.6 km/h 90 % 0.0 in /  0 mm
03:27 6.7 °F /  -14.1 °C 5.3 °F /  -14.8 °C 1008.7 in /  34154.6 hPa South 8.0 mph /  12.9 km/h 20.9 mph /  33.6 km/h 91 % 0.0 in /  0 mm
03:32 6.7 °F /  -14.1 °C 5.3 °F /  -14.8 °C 1008.7 in /  34154.6 hPa SW 14.5 mph /  23.3 km/h 19.3 mph /  31.1 km/h 91 % 0.0 in /  0 mm
03:37 6.7 °F /  -14.1 °C 5.3 °F /  -14.8 °C 1008.7 in /  34154.6 hPa SE 9.7 mph /  15.6 km/h 20.9 mph /  33.6 km/h 91 % 0.0 in /  0 mm
03:42 6.7 °F /  -14.1 °C 5.3 °F /  -14.8 °C 1008.7 in /  34154.6 hPa SSW 9.7 mph /  15.6 km/h 20.9 mph /  33.6 km/h 91 % 0.0 in /  0 mm
03:47 6.7 °F /  -14.1 °C 5.3 °F /  -14.8 °C 1009.0 in /  34164.7 hPa SSW 8.0 mph /  12.9 km/h 20.9 mph /  33.6 km/h 91 % 0.0 in /  0 mm
03:52 6.6 °F /  -14.1 °C 5.2 °F /  -14.9 °C 1009.0 in /  34164.7 hPa SSW 12.9 mph /  20.8 km/h 20.9 mph /  33.6 km/h 91 % 0.0 in /  0 mm
03:57 6.6 °F /  -14.1 °C 5.1 °F /  -14.9 °C 1009.0 in /  34164.7 hPa SSW 11.3 mph /  18.2 km/h 22.5 mph /  36.2 km/h 90 % 0.0 in /  0 mm
04:02 6.7 °F /  -14.1 °C 5.2 °F /  -14.9 °C 1009.0 in /  34164.7 hPa SW 12.9 mph /  20.8 km/h 24.1 mph /  38.8 km/h 90 % 0.0 in /  0 mm
04:12 6.6 °F /  -14.1 °C 4.9 °F /  -15.1 °C 1009.4 in /  34178.3 hPa SSW 12.9 mph /  20.8 km/h 24.1 mph /  38.8 km/h 89 % 0.0 in /  0 mm
04:17 6.6 °F /  -14.1 °C 4.9 °F /  -15.1 °C 1009.4 in /  34178.3 hPa WSW 8.0 mph /  12.9 km/h 20.9 mph /  33.6 km/h 89 % 0.0 in /  0 mm
04:22 6.6 °F /  -14.1 °C 4.9 °F /  -15.1 °C 1009.4 in /  34178.3 hPa SW 9.7 mph /  15.6 km/h 20.9 mph /  33.6 km/h 89 % 0.0 in /  0 mm
04:27 6.6 °F /  -14.1 °C 4.9 °F /  -15.1 °C 1009.4 in /  34178.3 hPa SSW 9.7 mph /  15.6 km/h 19.3 mph /  31.1 km/h 89 % 0.0 in /  0 mm
04:37 6.6 °F /  -14.1 °C 4.9 °F /  -15.1 °C 1009.4 in /  34178.3 hPa SW 8.0 mph /  12.9 km/h 20.9 mph /  33.6 km/h 89 % 0.0 in /  0 mm
04:42 6.6 °F /  -14.1 °C 4.9 °F /  -15.1 °C 1009.4 in /  34178.3 hPa SSE 12.9 mph /  20.8 km/h 25.7 mph /  41.4 km/h 89 % 0.0 in /  0 mm
04:47 6.6 °F /  -14.1 °C 4.9 °F /  -15.1 °C 1009.4 in /  34178.3 hPa WSW 16.1 mph /  25.9 km/h 25.7 mph /  41.4 km/h 89 % 0.0 in /  0 mm
04:52 6.6 °F /  -14.1 °C 4.9 °F /  -15.1 °C 1009.7 in /  34188.4 hPa SW 12.9 mph /  20.8 km/h 25.7 mph /  41.4 km/h 89 % 0.0 in /  0 mm
04:57 6.6 °F /  -14.1 °C 5.1 °F /  -14.9 °C 1009.7 in /  34188.4 hPa SW 16.1 mph /  25.9 km/h 22.5 mph /  36.2 km/h 90 % 0.0 in /  0 mm
05:02 6.6 °F /  -14.1 °C 5.1 °F /  -14.9 °C 1009.7 in /  34188.4 hPa SW 19.3 mph /  31.1 km/h 22.5 mph /  36.2 km/h 90 % 0.0 in /  0 mm
05:07 6.6 °F /  -14.1 °C 5.1 °F /  -14.9 °C 1010.0 in /  34198.6 hPa SW 12.9 mph /  20.8 km/h 22.5 mph /  36.2 km/h 90 % 0.0 in /  0 mm
05:12 6.6 °F /  -14.1 °C 5.2 °F /  -14.9 °C 1010.0 in /  34198.6 hPa SW 8.0 mph /  12.9 km/h 22.5 mph /  36.2 km/h 91 % 0.0 in /  0 mm
05:17 6.6 °F /  -14.1 °C 5.2 °F /  -14.9 °C 1010.0 in /  34198.6 hPa WSW 12.9 mph /  20.8 km/h 24.1 mph /  38.8 km/h 91 % 0.0 in /  0 mm
05:22 6.7 °F /  -14.1 °C 5.2 °F /  -14.9 °C 1010.0 in /  34198.6 hPa SW 9.7 mph /  15.6 km/h 24.1 mph /  38.8 km/h 90 % 0.0 in /  0 mm
05:27 6.6 °F /  -14.1 °C 5.1 °F /  -14.9 °C 1010.0 in /  34198.6 hPa WSW 11.3 mph /  18.2 km/h 24.1 mph /  38.8 km/h 90 % 0.0 in /  0 mm
05:32 6.6 °F /  -14.1 °C 5.1 °F /  -14.9 °C 1010.4 in /  34212.1 hPa West 14.5 mph /  23.3 km/h 24.1 mph /  38.8 km/h 90 % 0.0 in /  0 mm
05:37 6.5 °F /  -14.2 °C 5.1 °F /  -14.9 °C 1010.4 in /  34212.1 hPa SSW 9.7 mph /  15.6 km/h 22.5 mph /  36.2 km/h 91 % 0.0 in /  0 mm
05:42 6.4 °F /  -14.2 °C 5.0 °F /  -15 °C 1010.4 in /  34212.1 hPa SW 16.1 mph /  25.9 km/h 22.5 mph /  36.2 km/h 91 % 0.0 in /  0 mm
05:47 6.4 °F /  -14.2 °C 5.0 °F /  -15 °C 1010.4 in /  34212.1 hPa SW 9.7 mph /  15.6 km/h 25.7 mph /  41.4 km/h 91 % 0.0 in /  0 mm
05:57 6.4 °F /  -14.2 °C 5.2 °F /  -14.9 °C 1010.4 in /  34212.1 hPa SW 8.0 mph /  12.9 km/h 22.5 mph /  36.2 km/h 92 % 0.0 in /  0 mm
06:02 6.3 °F /  -14.3 °C 5.1 °F /  -14.9 °C 1010.7 in /  34222.3 hPa SW 9.7 mph /  15.6 km/h 22.5 mph /  36.2 km/h 92 % 0.0 in /  0 mm
06:07 6.4 °F /  -14.2 °C 5.2 °F /  -14.9 °C 1010.7 in /  34222.3 hPa SW 14.5 mph /  23.3 km/h 24.1 mph /  38.8 km/h 92 % 0.0 in /  0 mm
06:12 6.4 °F /  -14.2 °C 5.2 °F /  -14.9 °C 1011.1 in /  34235.8 hPa SW 9.7 mph /  15.6 km/h 24.1 mph /  38.8 km/h 92 % 0.0 in /  0 mm
06:17 6.4 °F /  -14.2 °C 5.2 °F /  -14.9 °C 1011.1 in /  34235.8 hPa WSW 11.3 mph /  18.2 km/h 22.5 mph /  36.2 km/h 92 % 0.0 in /  0 mm
06:22 6.4 °F /  -14.2 °C 5.2 °F /  -14.9 °C 1011.1 in /  34235.8 hPa SW 12.9 mph /  20.8 km/h 22.5 mph /  36.2 km/h 92 % 0.0 in /  0 mm
06:27 6.4 °F /  -14.2 °C 5.4 °F /  -14.8 °C 1011.1 in /  34235.8 hPa SSW 8.0 mph /  12.9 km/h 22.5 mph /  36.2 km/h 93 % 0.0 in /  0 mm
06:32 6.5 °F /  -14.2 °C 5.3 °F /  -14.8 °C 1011.1 in /  34235.8 hPa WSW 6.4 mph /  10.3 km/h 22.5 mph /  36.2 km/h 92 % 0.0 in /  0 mm
06:37 6.5 °F /  -14.2 °C 5.3 °F /  -14.8 °C 1011.1 in /  34235.8 hPa WSW 14.5 mph /  23.3 km/h 22.5 mph /  36.2 km/h 92 % 0.0 in /  0 mm
06:42 6.5 °F /  -14.2 °C 5.3 °F /  -14.8 °C 1011.4 in /  34246 hPa SW 11.3 mph /  18.2 km/h 19.3 mph /  31.1 km/h 92 % 0.0 in /  0 mm
06:47 6.6 °F /  -14.1 °C 5.4 °F /  -14.8 °C 1011.4 in /  34246 hPa SW 12.9 mph /  20.8 km/h 19.3 mph /  31.1 km/h 92 % 0.0 in /  0 mm
06:52 6.6 °F /  -14.1 °C 5.4 °F /  -14.8 °C 1011.4 in /  34246 hPa WSW 14.5 mph /  23.3 km/h 24.1 mph /  38.8 km/h 92 % 0.0 in /  0 mm
06:57 6.6 °F /  -14.1 °C 5.4 °F /  -14.8 °C 1011.4 in /  34246 hPa SW 11.3 mph /  18.2 km/h 25.7 mph /  41.4 km/h 92 % 0.0 in /  0 mm
07:02 6.7 °F /  -14.1 °C 5.5 °F /  -14.7 °C 1011.7 in /  34256.2 hPa WSW 16.1 mph /  25.9 km/h 25.7 mph /  41.4 km/h 92 % 0.0 in /  0 mm
07:12 6.7 °F /  -14.1 °C 5.5 °F /  -14.7 °C 1011.7 in /  34256.2 hPa SW 12.9 mph /  20.8 km/h 20.9 mph /  33.6 km/h 92 % 0.0 in /  0 mm
07:17 6.7 °F /  -14.1 °C 5.5 °F /  -14.7 °C 1011.7 in /  34256.2 hPa WSW 16.1 mph /  25.9 km/h 19.3 mph /  31.1 km/h 92 % 0.0 in /  0 mm
07:27 6.8 °F /  -14 °C 5.6 °F /  -14.7 °C 1011.7 in /  34256.2 hPa SW 14.5 mph /  23.3 km/h 20.9 mph /  33.6 km/h 92 % 0.0 in /  0 mm
07:32 6.8 °F /  -14 °C 5.6 °F /  -14.7 °C 1011.7 in /  34256.2 hPa WSW 16.1 mph /  25.9 km/h 20.9 mph /  33.6 km/h 92 % 0.0 in /  0 mm
07:37 6.8 °F /  -14 °C 5.4 °F /  -14.8 °C 1012.1 in /  34269.7 hPa SW 12.9 mph /  20.8 km/h 24.1 mph /  38.8 km/h 91 % 0.0 in /  0 mm
07:42 6.8 °F /  -14 °C 5.4 °F /  -14.8 °C 1012.1 in /  34269.7 hPa SW 14.5 mph /  23.3 km/h 24.1 mph /  38.8 km/h 91 % 0.0 in /  0 mm
07:47 6.9 °F /  -13.9 °C 5.5 °F /  -14.7 °C 1012.1 in /  34269.7 hPa SW 9.7 mph /  15.6 km/h 24.1 mph /  38.8 km/h 91 % 0.0 in /  0 mm
07:52 6.9 °F /  -13.9 °C 5.5 °F /  -14.7 °C 1012.4 in /  34279.9 hPa WSW 6.4 mph /  10.3 km/h 22.5 mph /  36.2 km/h 91 % 0.0 in /  0 mm
07:57 6.9 °F /  -13.9 °C 5.5 °F /  -14.7 °C 1012.4 in /  34279.9 hPa SW 4.8 mph /  7.7 km/h 20.9 mph /  33.6 km/h 91 % 0.0 in /  0 mm
08:02 6.9 °F /  -13.9 °C 5.5 °F /  -14.7 °C 1012.4 in /  34279.9 hPa WSW 6.4 mph /  10.3 km/h 20.9 mph /  33.6 km/h 91 % 0.0 in /  0 mm
08:12 6.9 °F /  -13.9 °C 5.5 °F /  -14.7 °C 1012.8 in /  34293.4 hPa WSW 6.4 mph /  10.3 km/h 20.9 mph /  33.6 km/h 91 % 0.0 in /  0 mm
08:17 7.0 °F /  -13.9 °C 5.6 °F /  -14.7 °C 1012.8 in /  34293.4 hPa SW 4.8 mph /  7.7 km/h 20.9 mph /  33.6 km/h 91 % 0.0 in /  0 mm
08:22 7.1 °F /  -13.8 °C 5.6 °F /  -14.7 °C 1012.8 in /  34293.4 hPa SW 19.3 mph /  31.1 km/h 20.9 mph /  33.6 km/h 90 % 0.0 in /  0 mm
08:27 7.1 °F /  -13.8 °C 5.6 °F /  -14.7 °C 1012.8 in /  34293.4 hPa WSW 8.0 mph /  12.9 km/h 24.1 mph /  38.8 km/h 90 % 0.0 in /  0 mm
08:32 7.1 °F /  -13.8 °C 5.6 °F /  -14.7 °C 1013.1 in /  34303.6 hPa SW 12.9 mph /  20.8 km/h 24.1 mph /  38.8 km/h 90 % 0.0 in /  0 mm
08:37 7.1 °F /  -13.8 °C 5.6 °F /  -14.7 °C 1013.1 in /  34303.6 hPa SW 9.7 mph /  15.6 km/h 24.1 mph /  38.8 km/h 90 % 0.0 in /  0 mm
08:42 7.2 °F /  -13.8 °C 5.7 °F /  -14.6 °C 1013.1 in /  34303.6 hPa SW 11.3 mph /  18.2 km/h 24.1 mph /  38.8 km/h 90 % 0.0 in /  0 mm
08:47 7.2 °F /  -13.8 °C 5.7 °F /  -14.6 °C 1013.1 in /  34303.6 hPa WSW 6.4 mph /  10.3 km/h 22.5 mph /  36.2 km/h 90 % 0.0 in /  0 mm
08:52 7.3 °F /  -13.7 °C 5.6 °F /  -14.7 °C 1013.1 in /  34303.6 hPa SW 22.5 mph /  36.2 km/h 24.1 mph /  38.8 km/h 89 % 0.0 in /  0 mm
08:57 7.4 °F /  -13.7 °C 5.7 °F /  -14.6 °C 1013.4 in /  34313.7 hPa SW 4.8 mph /  7.7 km/h 24.1 mph /  38.8 km/h 89 % 0.0 in /  0 mm
09:02 7.4 °F /  -13.7 °C 5.5 °F /  -14.7 °C 1013.4 in /  34313.7 hPa WSW 20.9 mph /  33.6 km/h 24.1 mph /  38.8 km/h 88 % 0.0 in /  0 mm
09:07 7.5 °F /  -13.6 °C 5.6 °F /  -14.7 °C 1013.4 in /  34313.7 hPa West 8.0 mph /  12.9 km/h 32.2 mph /  51.8 km/h 88 % 0.0 in /  0 mm
09:12 7.6 °F /  -13.6 °C 5.7 °F /  -14.6 °C 1013.4 in /  34313.7 hPa SW 6.4 mph /  10.3 km/h 32.2 mph /  51.8 km/h 88 % 0.0 in /  0 mm
09:17 7.8 °F /  -13.4 °C 5.8 °F /  -14.6 °C 1013.8 in /  34327.3 hPa WSW 9.7 mph /  15.6 km/h 24.1 mph /  38.8 km/h 87 % 0.0 in /  0 mm
09:22 7.9 °F /  -13.4 °C 5.9 °F /  -14.5 °C 1013.8 in /  34327.3 hPa WSW 6.4 mph /  10.3 km/h 24.1 mph /  38.8 km/h 87 % 0.0 in /  0 mm
09:32 8.2 °F /  -13.2 °C 5.8 °F /  -14.6 °C 1013.8 in /  34327.3 hPa WSW 6.4 mph /  10.3 km/h 19.3 mph /  31.1 km/h 85 % 0.0 in /  0 mm
09:37 8.4 °F /  -13.1 °C 6.0 °F /  -14.4 °C 1013.4 in /  34313.7 hPa SW 14.5 mph /  23.3 km/h 19.3 mph /  31.1 km/h 85 % 0.0 in /  0 mm
09:42 8.8 °F /  -12.9 °C 6.2 °F /  -14.3 °C 1013.4 in /  34313.7 hPa SW 11.3 mph /  18.2 km/h 22.5 mph /  36.2 km/h 84 % 0.0 in /  0 mm
09:47 8.9 °F /  -12.8 °C 6.3 °F /  -14.3 °C 1013.4 in /  34313.7 hPa SW 16.1 mph /  25.9 km/h 22.5 mph /  36.2 km/h 84 % 0.0 in /  0 mm
09:57 9.2 °F /  -12.7 °C 6.5 °F /  -14.2 °C 1013.8 in /  34327.3 hPa SSW 14.5 mph /  23.3 km/h 30.6 mph /  49.2 km/h 83 % 0.0 in /  0 mm
10:02 9.3 °F /  -12.6 °C 6.6 °F /  -14.1 °C 1013.8 in /  34327.3 hPa SW 3.2 mph /  5.1 km/h 30.6 mph /  49.2 km/h 83 % 0.0 in /  0 mm
10:12 9.6 °F /  -12.4 °C 6.3 °F /  -14.3 °C 1013.8 in /  34327.3 hPa SW 6.4 mph /  10.3 km/h 25.7 mph /  41.4 km/h 80 % 0.0 in /  0 mm
10:17 9.6 °F /  -12.4 °C 6.0 °F /  -14.4 °C 1013.8 in /  34327.3 hPa West 20.9 mph /  33.6 km/h 25.7 mph /  41.4 km/h 78 % 0.0 in /  0 mm
10:22 9.3 °F /  -12.6 °C 5.5 °F /  -14.7 °C 1013.8 in /  34327.3 hPa West 11.3 mph /  18.2 km/h 24.1 mph /  38.8 km/h 77 % 0.0 in /  0 mm
10:32 9.6 °F /  -12.4 °C 6.1 °F /  -14.4 °C 1014.1 in /  34337.4 hPa West 8.0 mph /  12.9 km/h 33.8 mph /  54.4 km/h 79 % 0.0 in /  0 mm
10:37 10.0 °F /  -12.2 °C 6.7 °F /  -14.1 °C 1014.1 in /  34337.4 hPa WSW 14.5 mph /  23.3 km/h 25.7 mph /  41.4 km/h 80 % 0.0 in /  0 mm
10:42 10.3 °F /  -12.1 °C 6.6 °F /  -14.1 °C 1014.1 in /  34337.4 hPa SW 16.1 mph /  25.9 km/h 25.7 mph /  41.4 km/h 78 % 0.0 in /  0 mm
10:52 10.5 °F /  -11.9 °C 6.4 °F /  -14.2 °C 1014.1 in /  34337.4 hPa SW 11.3 mph /  18.2 km/h 27.4 mph /  44.1 km/h 76 % 0.0 in /  0 mm
10:57 10.4 °F /  -12 °C 6.0 °F /  -14.4 °C 1014.1 in /  34337.4 hPa WSW 11.3 mph /  18.2 km/h 29.0 mph /  46.7 km/h 74 % 0.0 in /  0 mm
11:02 10.6 °F /  -11.9 °C 5.8 °F /  -14.6 °C 1014.1 in /  34337.4 hPa WSW 16.1 mph /  25.9 km/h 29.0 mph /  46.7 km/h 72 % 0.0 in /  0 mm
11:07 10.6 °F /  -11.9 °C 5.6 °F /  -14.7 °C 1014.1 in /  34337.4 hPa WNW 9.7 mph /  15.6 km/h 29.0 mph /  46.7 km/h 71 % 0.0 in /  0 mm
11:12 10.9 °F /  -11.7 °C 6.3 °F /  -14.3 °C 1014.1 in /  34337.4 hPa WSW 14.5 mph /  23.3 km/h 29.0 mph /  46.7 km/h 73 % 0.0 in /  0 mm
11:17 10.9 °F /  -11.7 °C 6.1 °F /  -14.4 °C 1013.8 in /  34327.3 hPa West 12.9 mph /  20.8 km/h 32.2 mph /  51.8 km/h 72 % 0.0 in /  0 mm
11:22 10.9 °F /  -11.7 °C 5.4 °F /  -14.8 °C 1014.1 in /  34337.4 hPa WSW 25.7 mph /  41.4 km/h 32.2 mph /  51.8 km/h 69 % 0.0 in /  0 mm
11:27 10.9 °F /  -11.7 °C 5.6 °F /  -14.7 °C 1014.1 in /  34337.4 hPa SW 17.7 mph /  28.5 km/h 32.2 mph /  51.8 km/h 70 % 0.0 in /  0 mm
11:32 10.9 °F /  -11.7 °C 5.2 °F /  -14.9 °C 1014.1 in /  34337.4 hPa West 9.7 mph /  15.6 km/h 32.2 mph /  51.8 km/h 68 % 0.0 in /  0 mm
11:42 11.2 °F /  -11.6 °C 5.1 °F /  -14.9 °C 1014.1 in /  34337.4 hPa West 17.7 mph /  28.5 km/h 32.2 mph /  51.8 km/h 66 % 0.0 in /  0 mm
11:52 11.5 °F /  -11.4 °C 4.9 °F /  -15.1 °C 1014.1 in /  34337.4 hPa SW 30.6 mph /  49.2 km/h 32.2 mph /  51.8 km/h 64 % 0.0 in /  0 mm
11:57 11.4 °F /  -11.4 °C 5.3 °F /  -14.8 °C 1014.1 in /  34337.4 hPa West 16.1 mph /  25.9 km/h 37.0 mph /  59.5 km/h 66 % 0.0 in /  0 mm
12:02 11.7 °F /  -11.3 °C 5.6 °F /  -14.7 °C 1014.1 in /  34337.4 hPa WSW 27.4 mph /  44.1 km/h 38.6 mph /  62.1 km/h 66 % 0.0 in /  0 mm
12:12 11.8 °F /  -11.2 °C 6.1 °F /  -14.4 °C 1014.1 in /  34337.4 hPa WSW 9.7 mph /  15.6 km/h 38.6 mph /  62.1 km/h 68 % 0.0 in /  0 mm
12:17 12.1 °F /  -11.1 °C 6.2 °F /  -14.3 °C 1014.1 in /  34337.4 hPa West 20.9 mph /  33.6 km/h 38.6 mph /  62.1 km/h 67 % 0.0 in /  0 mm
12:22 11.8 °F /  -11.2 °C 5.4 °F /  -14.8 °C 1014.1 in /  34337.4 hPa WSW 22.5 mph /  36.2 km/h 37.0 mph /  59.5 km/h 65 % 0.0 in /  0 mm
12:27 11.9 °F /  -11.2 °C 5.3 °F /  -14.8 °C 1014.1 in /  34337.4 hPa West 22.5 mph /  36.2 km/h 32.2 mph /  51.8 km/h 64 % 0.0 in /  0 mm
12:32 12.0 °F /  -11.1 °C 5.4 °F /  -14.8 °C 1014.1 in /  34337.4 hPa WSW 29.0 mph /  46.7 km/h 32.2 mph /  51.8 km/h 64 % 0.0 in /  0 mm
12:37 11.9 °F /  -11.2 °C 5.3 °F /  -14.8 °C 1014.1 in /  34337.4 hPa West 14.5 mph /  23.3 km/h 32.2 mph /  51.8 km/h 64 % 0.0 in /  0 mm
12:42 12.3 °F /  -10.9 °C 5.5 °F /  -14.7 °C 1014.1 in /  34337.4 hPa WNW 17.7 mph /  28.5 km/h 30.6 mph /  49.2 km/h 63 % 0.0 in /  0 mm
12:47 12.1 °F /  -11.1 °C 5.0 °F /  -15 °C 1014.1 in /  34337.4 hPa WSW 11.3 mph /  18.2 km/h 35.4 mph /  57 km/h 62 % 0.0 in /  0 mm
12:52 12.2 °F /  -11 °C 5.8 °F /  -14.6 °C 1014.1 in /  34337.4 hPa West 19.3 mph /  31.1 km/h 35.4 mph /  57 km/h 65 % 0.0 in /  0 mm
12:57 12.3 °F /  -10.9 °C 5.7 °F /  -14.6 °C 1014.1 in /  34337.4 hPa West 14.5 mph /  23.3 km/h 35.4 mph /  57 km/h 64 % 0.0 in /  0 mm
13:02 12.1 °F /  -11.1 °C 5.0 °F /  -15 °C 1014.1 in /  34337.4 hPa SW 8.0 mph /  12.9 km/h 27.4 mph /  44.1 km/h 62 % 0.0 in /  0 mm
13:12 12.1 °F /  -11.1 °C 5.9 °F /  -14.5 °C 1014.1 in /  34337.4 hPa West 8.0 mph /  12.9 km/h 30.6 mph /  49.2 km/h 66 % 0.0 in /  0 mm
13:17 12.2 °F /  -11 °C 5.6 °F /  -14.7 °C 1014.4 in /  34347.6 hPa West 14.5 mph /  23.3 km/h 30.6 mph /  49.2 km/h 64 % 0.0 in /  0 mm
13:22 12.6 °F /  -10.8 °C 6.8 °F /  -14 °C 1014.4 in /  34347.6 hPa WSW 14.5 mph /  23.3 km/h 27.4 mph /  44.1 km/h 68 % 0.0 in /  0 mm
13:32 12.2 °F /  -11 °C 5.4 °F /  -14.8 °C 1014.4 in /  34347.6 hPa West 14.5 mph /  23.3 km/h 29.0 mph /  46.7 km/h 63 % 0.0 in /  0 mm
13:37 12.1 °F /  -11.1 °C 5.3 °F /  -14.8 °C 1014.4 in /  34347.6 hPa West 22.5 mph /  36.2 km/h 29.0 mph /  46.7 km/h 63 % 0.0 in /  0 mm
13:42 12.2 °F /  -11 °C 5.6 °F /  -14.7 °C 1014.4 in /  34347.6 hPa WSW 12.9 mph /  20.8 km/h 27.4 mph /  44.1 km/h 64 % 0.0 in /  0 mm
13:52 12.6 °F /  -10.8 °C 4.3 °F /  -15.4 °C 1014.4 in /  34347.6 hPa West 14.5 mph /  23.3 km/h 30.6 mph /  49.2 km/h 57 % 0.0 in /  0 mm
13:57 12.9 °F /  -10.6 °C 5.3 °F /  -14.8 °C 1014.4 in /  34347.6 hPa WSW 19.3 mph /  31.1 km/h 30.6 mph /  49.2 km/h 60 % 0.0 in /  0 mm
14:07 12.2 °F /  -11 °C 5.8 °F /  -14.6 °C 1014.8 in /  34361.1 hPa WSW 20.9 mph /  33.6 km/h 32.2 mph /  51.8 km/h 65 % 0.0 in /  0 mm
14:17 10.6 °F /  -11.9 °C 6.0 °F /  -14.4 °C 1014.4 in /  34347.6 hPa West 11.3 mph /  18.2 km/h 38.6 mph /  62.1 km/h 73 % 0.3 in /  7.62 mm
14:27 11.1 °F /  -11.6 °C 6.4 °F /  -14.2 °C 1014.8 in /  34361.1 hPa WSW 12.9 mph /  20.8 km/h 27.4 mph /  44.1 km/h 73 % 0.3 in /  7.62 mm
14:32 11.4 °F /  -11.4 °C 6.3 °F /  -14.3 °C 1014.8 in /  34361.1 hPa West 19.3 mph /  31.1 km/h 30.6 mph /  49.2 km/h 71 % 0.5 in /  12.7 mm
14:42 11.5 °F /  -11.4 °C 5.6 °F /  -14.7 °C 1014.8 in /  34361.1 hPa West 14.5 mph /  23.3 km/h 40.2 mph /  64.7 km/h 67 % 0.5 in /  12.7 mm
14:47 11.7 °F /  -11.3 °C 5.3 °F /  -14.8 °C 1014.8 in /  34361.1 hPa SW 12.9 mph /  20.8 km/h 40.2 mph /  64.7 km/h 65 % 0.5 in /  12.7 mm
14:52 12.0 °F /  -11.1 °C 4.9 °F /  -15.1 °C 1014.8 in /  34361.1 hPa WSW 12.9 mph /  20.8 km/h 40.2 mph /  64.7 km/h 62 % 0.5 in /  12.7 mm
14:57 12.1 °F /  -11.1 °C 5.3 °F /  -14.8 °C 1014.8 in /  34361.1 hPa WSW 8.0 mph /  12.9 km/h 30.6 mph /  49.2 km/h 63 % 0.5 in /  12.7 mm
15:02 12.3 °F /  -10.9 °C 5.0 °F /  -15 °C 1014.8 in /  34361.1 hPa SW 16.1 mph /  25.9 km/h 30.6 mph /  49.2 km/h 61 % 0.5 in /  12.7 mm
15:12 12.6 °F /  -10.8 °C 4.8 °F /  -15.1 °C 1014.8 in /  34361.1 hPa SSW 16.1 mph /  25.9 km/h 29.0 mph /  46.7 km/h 59 % 0.3 in /  7.62 mm
15:17 12.8 °F /  -10.7 °C 5.2 °F /  -14.9 °C 1015.1 in /  34371.3 hPa WSW 24.1 mph /  38.8 km/h 29.0 mph /  46.7 km/h 60 % 0.3 in /  7.62 mm
15:22 12.7 °F /  -10.7 °C 5.6 °F /  -14.7 °C 1015.1 in /  34371.3 hPa SW 27.4 mph /  44.1 km/h 32.2 mph /  51.8 km/h 62 % 0.3 in /  7.62 mm
15:32 12.2 °F /  -11 °C 4.9 °F /  -15.1 °C 1015.1 in /  34371.3 hPa SSW 9.7 mph /  15.6 km/h 33.8 mph /  54.4 km/h 61 % 0.0 in /  0 mm
15:42 12.8 °F /  -10.7 °C 5.0 °F /  -15 °C 1015.1 in /  34371.3 hPa WSW 22.5 mph /  36.2 km/h 29.0 mph /  46.7 km/h 59 % 0.0 in /  0 mm
15:52 12.5 °F /  -10.8 °C 6.1 °F /  -14.4 °C 1015.1 in /  34371.3 hPa WNW 22.5 mph /  36.2 km/h 33.8 mph /  54.4 km/h 65 % 0.0 in /  0 mm
15:57 11.6 °F /  -11.3 °C 5.5 °F /  -14.7 °C 1015.1 in /  34371.3 hPa West 12.9 mph /  20.8 km/h 33.8 mph /  54.4 km/h 66 % 0.0 in /  0 mm
16:02 11.2 °F /  -11.6 °C 5.7 °F /  -14.6 °C 1015.5 in /  34384.8 hPa West 17.7 mph /  28.5 km/h 33.8 mph /  54.4 km/h 69 % 0.0 in /  0 mm
16:12 11.1 °F /  -11.6 °C 5.2 °F /  -14.9 °C 1015.5 in /  34384.8 hPa West 9.7 mph /  15.6 km/h 32.2 mph /  51.8 km/h 67 % 0.0 in /  0 mm
16:17 11.3 °F /  -11.5 °C 5.2 °F /  -14.9 °C 1015.5 in /  34384.8 hPa West 9.7 mph /  15.6 km/h 30.6 mph /  49.2 km/h 66 % 0.0 in /  0 mm
16:22 11.6 °F /  -11.3 °C 5.2 °F /  -14.9 °C 1015.5 in /  34384.8 hPa West 16.1 mph /  25.9 km/h 27.4 mph /  44.1 km/h 65 % 0.0 in /  0 mm
16:32 12.1 °F /  -11.1 °C 5.3 °F /  -14.8 °C 1015.5 in /  34384.8 hPa SW 4.8 mph /  7.7 km/h 25.7 mph /  41.4 km/h 63 % 0.0 in /  0 mm
16:37 12.6 °F /  -10.8 °C 4.8 °F /  -15.1 °C 1015.5 in /  34384.8 hPa West 8.0 mph /  12.9 km/h 25.7 mph /  41.4 km/h 59 % 0.0 in /  0 mm
16:42 12.7 °F /  -10.7 °C 4.4 °F /  -15.3 °C 1015.5 in /  34384.8 hPa West 14.5 mph /  23.3 km/h 32.2 mph /  51.8 km/h 57 % 0.0 in /  0 mm
16:47 12.7 °F /  -10.7 °C 4.4 °F /  -15.3 °C 1015.5 in /  34384.8 hPa SW 12.9 mph /  20.8 km/h 32.2 mph /  51.8 km/h 57 % 0.0 in /  0 mm
16:57 12.9 °F /  -10.6 °C 5.1 °F /  -14.9 °C 1015.5 in /  34384.8 hPa SW 30.6 mph /  49.2 km/h 30.6 mph /  49.2 km/h 59 % 0.0 in /  0 mm
17:02 12.7 °F /  -10.7 °C 5.1 °F /  -14.9 °C 1015.5 in /  34384.8 hPa SW 14.5 mph /  23.3 km/h 30.6 mph /  49.2 km/h 60 % 0.0 in /  0 mm
17:12 12.2 °F /  -11 °C 5.1 °F /  -14.9 °C 1015.5 in /  34384.8 hPa WSW 8.0 mph /  12.9 km/h 30.6 mph /  49.2 km/h 62 % 0.0 in /  0 mm
17:17 12.3 °F /  -10.9 °C 5.0 °F /  -15 °C 1015.8 in /  34395 hPa SW 9.7 mph /  15.6 km/h 30.6 mph /  49.2 km/h 61 % 0.0 in /  0 mm
17:22 12.4 °F /  -10.9 °C 4.4 °F /  -15.3 °C 1015.5 in /  34384.8 hPa WSW 14.5 mph /  23.3 km/h 30.6 mph /  49.2 km/h 58 % 0.0 in /  0 mm
17:27 12.5 °F /  -10.8 °C 3.7 °F /  -15.7 °C 1015.8 in /  34395 hPa WSW 16.1 mph /  25.9 km/h 27.4 mph /  44.1 km/h 55 % 0.0 in /  0 mm
17:32 12.6 °F /  -10.8 °C 4.6 °F /  -15.2 °C 1015.8 in /  34395 hPa WSW 14.5 mph /  23.3 km/h 27.4 mph /  44.1 km/h 58 % 0.0 in /  0 mm
17:37 12.6 °F /  -10.8 °C 4.1 °F /  -15.5 °C 1015.8 in /  34395 hPa WNW 16.1 mph /  25.9 km/h 27.4 mph /  44.1 km/h 56 % 0.0 in /  0 mm
17:42 12.7 °F /  -10.7 °C 4.1 °F /  -15.5 °C 1015.8 in /  34395 hPa West 12.9 mph /  20.8 km/h 20.9 mph /  33.6 km/h 56 % 0.0 in /  0 mm
17:47 12.8 °F /  -10.7 °C 4.2 °F /  -15.4 °C 1015.8 in /  34395 hPa WNW 4.8 mph /  7.7 km/h 22.5 mph /  36.2 km/h 56 % 0.0 in /  0 mm
17:52 12.8 °F /  -10.7 °C 4.2 °F /  -15.4 °C 1015.8 in /  34395 hPa West 8.0 mph /  12.9 km/h 22.5 mph /  36.2 km/h 56 % 0.0 in /  0 mm
18:02 12.6 °F /  -10.8 °C 3.8 °F /  -15.7 °C 1015.8 in /  34395 hPa SW 12.9 mph /  20.8 km/h 16.1 mph /  25.9 km/h 55 % 0.0 in /  0 mm
18:12 12.7 °F /  -10.7 °C 3.9 °F /  -15.6 °C 1015.8 in /  34395 hPa West 12.9 mph /  20.8 km/h 20.9 mph /  33.6 km/h 55 % 0.0 in /  0 mm
18:17 12.7 °F /  -10.7 °C 4.1 °F /  -15.5 °C 1015.8 in /  34395 hPa SW 11.3 mph /  18.2 km/h 20.9 mph /  33.6 km/h 56 % 0.0 in /  0 mm
18:27 12.8 °F /  -10.7 °C 5.5 °F /  -14.7 °C 1015.8 in /  34395 hPa WSW 9.7 mph /  15.6 km/h 20.9 mph /  33.6 km/h 61 % 0.0 in /  0 mm
18:32 12.8 °F /  -10.7 °C 5.5 °F /  -14.7 °C 1015.8 in /  34395 hPa WSW 8.0 mph /  12.9 km/h 24.1 mph /  38.8 km/h 61 % 0.0 in /  0 mm
18:37 12.9 °F /  -10.6 °C 3.8 °F /  -15.7 °C 1015.8 in /  34395 hPa WSW 14.5 mph /  23.3 km/h 24.1 mph /  38.8 km/h 54 % 0.0 in /  0 mm
18:42 12.9 °F /  -10.6 °C 3.5 °F /  -15.8 °C 1015.8 in /  34395 hPa SW 14.5 mph /  23.3 km/h 25.7 mph /  41.4 km/h 53 % 0.0 in /  0 mm
18:47 12.9 °F /  -10.6 °C 3.8 °F /  -15.7 °C 1016.1 in /  34405.1 hPa WSW 17.7 mph /  28.5 km/h 30.6 mph /  49.2 km/h 54 % 0.0 in /  0 mm
18:52 12.8 °F /  -10.7 °C 3.7 °F /  -15.7 °C 1016.1 in /  34405.1 hPa SW 17.7 mph /  28.5 km/h 30.6 mph /  49.2 km/h 54 % 0.0 in /  0 mm
19:02 12.6 °F /  -10.8 °C 3.3 °F /  -15.9 °C 1015.8 in /  34395 hPa WSW 16.1 mph /  25.9 km/h 25.7 mph /  41.4 km/h 53 % 0.0 in /  0 mm
19:12 12.5 °F /  -10.8 °C 4.2 °F /  -15.4 °C 1015.8 in /  34395 hPa SW 16.1 mph /  25.9 km/h 24.1 mph /  38.8 km/h 57 % 0.0 in /  0 mm
19:17 12.4 °F /  -10.9 °C 4.4 °F /  -15.3 °C 1015.8 in /  34395 hPa SW 11.3 mph /  18.2 km/h 22.5 mph /  36.2 km/h 58 % 0.0 in /  0 mm
19:22 12.3 °F /  -10.9 °C 4.5 °F /  -15.3 °C 1016.1 in /  34405.1 hPa WSW 9.7 mph /  15.6 km/h 22.5 mph /  36.2 km/h 59 % 0.0 in /  0 mm
19:32 12.0 °F /  -11.1 °C 4.7 °F /  -15.2 °C 1016.1 in /  34405.1 hPa SW 4.8 mph /  7.7 km/h 19.3 mph /  31.1 km/h 61 % 0.0 in /  0 mm
19:42 12.1 °F /  -11.1 °C 5.0 °F /  -15 °C 1016.1 in /  34405.1 hPa WSW 11.3 mph /  18.2 km/h 12.9 mph /  20.8 km/h 62 % 0.0 in /  0 mm
19:47 11.9 °F /  -11.2 °C 5.1 °F /  -14.9 °C 1016.1 in /  34405.1 hPa SW 8.0 mph /  12.9 km/h 12.9 mph /  20.8 km/h 63 % 0.0 in /  0 mm
19:57 11.4 °F /  -11.4 °C 5.1 °F /  -14.9 °C 1016.1 in /  34405.1 hPa SSW 4.8 mph /  7.7 km/h 14.5 mph /  23.3 km/h 65 % 0.0 in /  0 mm
20:02 11.1 °F /  -11.6 °C 5.2 °F /  -14.9 °C 1016.1 in /  34405.1 hPa South 3.2 mph /  5.1 km/h 14.5 mph /  23.3 km/h 67 % 0.0 in /  0 mm
20:07 10.9 °F /  -11.7 °C 5.0 °F /  -15 °C 1016.1 in /  34405.1 hPa SW 9.7 mph /  15.6 km/h 14.5 mph /  23.3 km/h 67 % 0.0 in /  0 mm
20:12 10.8 °F /  -11.8 °C 5.3 °F /  -14.8 °C 1016.1 in /  34405.1 hPa SW 3.2 mph /  5.1 km/h 14.5 mph /  23.3 km/h 69 % 0.0 in /  0 mm
20:17 10.6 °F /  -11.9 °C 5.1 °F /  -14.9 °C 1016.1 in /  34405.1 hPa SW 4.8 mph /  7.7 km/h 14.5 mph /  23.3 km/h 69 % 0.0 in /  0 mm
20:22 10.3 °F /  -12.1 °C 5.3 °F /  -14.8 °C 1016.1 in /  34405.1 hPa SSW 4.8 mph /  7.7 km/h 12.9 mph /  20.8 km/h 71 % 0.0 in /  0 mm
20:27 10.1 °F /  -12.2 °C 5.3 °F /  -14.8 °C 1016.5 in /  34418.7 hPa South 1.6 mph /  2.6 km/h 9.7 mph /  15.6 km/h 72 % 0.0 in /  0 mm
20:32 9.9 °F /  -12.3 °C 5.3 °F /  -14.8 °C 1016.1 in /  34405.1 hPa SSW 3.2 mph /  5.1 km/h 9.7 mph /  15.6 km/h 73 % 0.0 in /  0 mm
20:37 9.8 °F /  -12.3 °C 5.4 °F /  -14.8 °C 1016.5 in /  34418.7 hPa SW 3.2 mph /  5.1 km/h 8.0 mph /  12.9 km/h 74 % 0.0 in /  0 mm
20:42 9.7 °F /  -12.4 °C 5.3 °F /  -14.8 °C 1016.1 in /  34405.1 hPa SSW 3.2 mph /  5.1 km/h 8.0 mph /  12.9 km/h 74 % 0.0 in /  0 mm
20:47 9.6 °F /  -12.4 °C 5.4 °F /  -14.8 °C 1016.1 in /  34405.1 hPa SW 4.8 mph /  7.7 km/h 8.0 mph /  12.9 km/h 75 % 0.0 in /  0 mm
20:52 9.4 °F /  -12.6 °C 5.4 °F /  -14.8 °C 1016.1 in /  34405.1 hPa SSW 3.2 mph /  5.1 km/h 9.7 mph /  15.6 km/h 76 % 0.0 in /  0 mm
20:57 9.3 °F /  -12.6 °C 5.5 °F /  -14.7 °C 1016.1 in /  34405.1 hPa SSW 1.6 mph /  2.6 km/h 9.7 mph /  15.6 km/h 77 % 0.0 in /  0 mm
21:02 9.2 °F /  -12.7 °C 5.6 °F /  -14.7 °C 1016.1 in /  34405.1 hPa Calm   8.0 mph /  12.9 km/h 78 % 0.0 in /  0 mm
21:12 9.1 °F /  -12.7 °C 5.5 °F /  -14.7 °C 1016.1 in /  34405.1 hPa SW 1.6 mph /  2.6 km/h 4.8 mph /  7.7 km/h 78 % 0.0 in /  0 mm
21:17 9.0 °F /  -12.8 °C 5.6 °F /  -14.7 °C 1016.5 in /  34418.7 hPa Calm   3.2 mph /  5.1 km/h 79 % 0.0 in /  0 mm
21:22 8.9 °F /  -12.8 °C 5.5 °F /  -14.7 °C 1016.5 in /  34418.7 hPa Calm   3.2 mph /  5.1 km/h 79 % 0.0 in /  0 mm
21:32 8.8 °F /  -12.9 °C 5.4 °F /  -14.8 °C 1016.5 in /  34418.7 hPa SSE 1.6 mph /  2.6 km/h 3.2 mph /  5.1 km/h 79 % 0.0 in /  0 mm
21:37 8.7 °F /  -12.9 °C 5.3 °F /  -14.8 °C 1016.5 in /  34418.7 hPa Calm   3.2 mph /  5.1 km/h 79 % 0.0 in /  0 mm
21:42 8.6 °F /  -13 °C 5.3 °F /  -14.8 °C 1016.5 in /  34418.7 hPa South 1.6 mph /  2.6 km/h 3.2 mph /  5.1 km/h 80 % 0.0 in /  0 mm
21:47 8.4 °F /  -13.1 °C 5.2 °F /  -14.9 °C 1016.8 in /  34428.8 hPa SSW 1.6 mph /  2.6 km/h 3.2 mph /  5.1 km/h 80 % 0.0 in /  0 mm
21:52 8.3 °F /  -13.2 °C 5.4 °F /  -14.8 °C 1016.8 in /  34428.8 hPa Calm   3.2 mph /  5.1 km/h 82 % 0.0 in /  0 mm
21:57 8.1 °F /  -13.3 °C 5.4 °F /  -14.8 °C 1016.8 in /  34428.8 hPa Calm   3.2 mph /  5.1 km/h 83 % 0.0 in /  0 mm
22:02 8.0 °F /  -13.3 °C 5.3 °F /  -14.8 °C 1016.8 in /  34428.8 hPa SW 1.6 mph /  2.6 km/h 3.2 mph /  5.1 km/h 83 % 0.0 in /  0 mm
22:12 7.8 °F /  -13.4 °C 4.9 °F /  -15.1 °C 1016.8 in /  34428.8 hPa South 1.6 mph /  2.6 km/h 3.2 mph /  5.1 km/h 82 % 0.0 in /  0 mm
22:17 7.7 °F /  -13.5 °C 5.0 °F /  -15 °C 1016.5 in /  34418.7 hPa Calm   3.2 mph /  5.1 km/h 83 % 0.0 in /  0 mm
22:22 7.6 °F /  -13.6 °C 4.9 °F /  -15.1 °C 1016.8 in /  34428.8 hPa Calm   3.2 mph /  5.1 km/h 83 % 0.0 in /  0 mm
22:27 7.4 °F /  -13.7 °C 4.7 °F /  -15.2 °C 1016.8 in /  34428.8 hPa Calm   3.2 mph /  5.1 km/h 83 % 0.0 in /  0 mm
22:32 7.3 °F /  -13.7 °C 4.8 °F /  -15.1 °C 1016.5 in /  34418.7 hPa SSW 1.6 mph /  2.6 km/h 3.2 mph /  5.1 km/h 84 % 0.0 in /  0 mm
22:42 7.4 °F /  -13.7 °C 5.0 °F /  -15 °C 1016.5 in /  34418.7 hPa South 3.2 mph /  5.1 km/h 8.0 mph /  12.9 km/h 85 % 0.0 in /  0 mm
22:47 7.4 °F /  -13.7 °C 5.2 °F /  -14.9 °C 1016.5 in /  34418.7 hPa SSW 3.2 mph /  5.1 km/h 8.0 mph /  12.9 km/h 86 % 0.0 in /  0 mm
22:57 7.4 °F /  -13.7 °C 5.0 °F /  -15 °C 1016.5 in /  34418.7 hPa SSW 1.6 mph /  2.6 km/h 6.4 mph /  10.3 km/h 85 % 0.0 in /  0 mm
23:02 7.4 °F /  -13.7 °C 5.2 °F /  -14.9 °C 1016.5 in /  34418.7 hPa SSW 1.6 mph /  2.6 km/h 6.4 mph /  10.3 km/h 86 % 0.0 in /  0 mm
23:07 7.4 °F /  -13.7 °C 5.2 °F /  -14.9 °C 1016.8 in /  34428.8 hPa SSW 3.2 mph /  5.1 km/h 6.4 mph /  10.3 km/h 86 % 0.0 in /  0 mm
23:12 7.5 °F /  -13.6 °C 5.5 °F /  -14.7 °C 1016.8 in /  34428.8 hPa SW 4.8 mph /  7.7 km/h 9.7 mph /  15.6 km/h 87 % 0.0 in /  0 mm
23:17 7.6 °F /  -13.6 °C 5.6 °F /  -14.7 °C 1016.8 in /  34428.8 hPa SW 6.4 mph /  10.3 km/h 9.7 mph /  15.6 km/h 87 % 0.0 in /  0 mm
23:22 7.7 °F /  -13.5 °C 5.5 °F /  -14.7 °C 1016.8 in /  34428.8 hPa SW 4.8 mph /  7.7 km/h 11.3 mph /  18.2 km/h 86 % 0.0 in /  0 mm
23:32 7.9 °F /  -13.4 °C 5.7 °F /  -14.6 °C 1016.8 in /  34428.8 hPa SW 3.2 mph /  5.1 km/h 8.0 mph /  12.9 km/h 86 % 0.0 in /  0 mm
23:42 8.1 °F /  -13.3 °C 5.7 °F /  -14.6 °C 1016.5 in /  34418.7 hPa SSW 3.2 mph /  5.1 km/h 8.0 mph /  12.9 km/h 85 % 0.0 in /  0 mm
23:47 8.1 °F /  -13.3 °C 5.7 °F /  -14.6 °C 1016.5 in /  34418.7 hPa SW 6.4 mph /  10.3 km/h 8.0 mph /  12.9 km/h 85 % 0.0 in /  0 mm
23:52 8.1 °F /  -13.3 °C 5.7 °F /  -14.6 °C 1016.5 in /  34418.7 hPa SW 1.6 mph /  2.6 km/h 8.0 mph /  12.9 km/h 85 % 0.0 in /  0 mm
Meteo18
Compliments of Weather Underground - 4 mb

Script developed by  Jim McMurry - jmcmurry@mwt.net Adapted for the template by  Wim van der Kuil - Leuven-Template.eu

You find our weather info also at:

European Weather Network

Weather Underground

Equipment we use:

Weather-station
Davis Vue

Weather-program
Meteobridge

Weather-server
Raspberry PI 2 B+

Provider
1 and 1

Davis Vue

Meteobridge

Raspberry PI 2 B+

1 and 1